Time;durP1;ratioP1;P1;durP2;ratioP2;P2;SDS_P1;SDS_P2;PMS_P1;PMS_P2;Temp;Humidity;BMP_temperature;BMP_pressure;BME280_temperature;BME280_humidity;BME280_pressure;Samples;Min_cycle;Max_cycle;Signal;HPM_P1;HPM_P2
2021/05/04 00:02:10;;;;;;;;;;;;;;;21.37;28.21;99333.41;4414918;32;19958;-49
2021/05/04 00:04:36;;;;;;;;;;;;;;;21.40;27.79;99320.13;4416361;32;19980;-51
2021/05/04 00:07:02;;;;;;;;;;;;;;;21.39;27.72;99306.87;4415820;32;19962;-50
2021/05/04 00:09:28;;;;;;;;;;;;;;;21.37;28.02;99306.91;4429846;32;20350;-48
2021/05/04 00:11:54;;;;;;;;;;;;;;;21.41;27.67;99300.69;4418385;32;20221;-51
2021/05/04 00:14:19;;;;;;;;;;;;;;;21.45;27.88;99296.25;4415861;32;19995;-48
2021/05/04 00:16:45;;;;;;;;;;;;;;;21.45;27.66;99293.59;4427169;32;19966;-51
2021/05/04 00:19:11;;;;;;;;;;;;;;;21.22;28.17;99284.09;4429495;32;19969;-49
2021/05/04 00:21:37;;;;;;;;;;;;;;;21.34;27.90;99270.72;4421640;32;19975;-52
2021/05/04 00:24:03;;;;;;;;;;;;;;;21.30;27.79;99269.00;4414921;32;19946;-50
2021/05/04 00:26:29;;;;;;;;;;;;;;;21.30;27.99;99258.44;4423892;32;19981;-52
2021/05/04 00:28:55;;;;;;;;;;;;;;;21.32;28.05;99248.69;4417314;32;20003;-51
2021/05/04 00:31:21;;;;;;;;;;;;;;;21.41;27.62;99252.13;4426544;32;19988;-47
2021/05/04 00:33:46;;;;;;;;;;;;;;;21.39;27.68;99245.97;4418060;32;20338;-50
2021/05/04 00:36:12;;;;;;;;;;;;;;;21.40;27.42;99235.38;4423928;32;20017;-50
2021/05/04 00:38:38;;;;;;;;;;;;;;;21.37;27.78;99235.41;4433153;32;20048;-50
2021/05/04 00:41:04;;;;;;;;;;;;;;;21.27;28.10;99229.31;4433155;32;19968;-48
2021/05/04 00:43:30;;;;;;;;;;;;;;;21.22;28.20;99231.13;4433799;32;20334;-53
2021/05/04 00:45:56;;;;;;;;;;;;;;;21.26;27.91;99226.69;4430827;32;19996;-47
2021/05/04 00:48:22;;;;;;;;;;;;;;;21.33;27.67;99223.06;4418580;32;20352;-51
2021/05/04 00:50:48;;;;;;;;;;;;;;;21.31;27.89;99215.16;4419469;32;20007;-52
2021/05/04 00:53:14;;;;;;;;;;;;;;;21.29;28.08;99214.28;4432095;32;19958;-51
2021/05/04 00:55:39;;;;;;;;;;;;;;;21.29;27.73;99205.47;4419110;32;19958;-50
2021/05/04 00:58:05;;;;;;;;;;;;;;;21.22;28.09;99203.75;4418036;32;20013;-51
2021/05/04 01:00:31;;;;;;;;;;;;;;;21.22;28.05;99194.06;4417577;32;19977;-47
2021/05/04 01:02:57;;;;;;;;;;;;;;;21.25;28.19;99185.22;4418445;32;19968;-47
2021/05/04 01:05:23;;;;;;;;;;;;;;;21.25;27.98;99182.56;4417202;32;20009;-49
2021/05/04 01:07:49;;;;;;;;;;;;;;;21.24;27.89;99179.03;4429949;32;19950;-49
2021/05/04 01:10:15;;;;;;;;;;;;;;;21.28;28.03;99172.81;4431648;32;20034;-50
2021/05/04 01:12:41;;;;;;;;;;;;;;;21.25;27.91;99162.25;4422858;32;19954;-53
2021/05/04 01:15:07;;;;;;;;;;;;;;;21.23;27.99;99164.03;4417704;32;19964;-50
2021/05/04 01:17:33;;;;;;;;;;;;;;;21.28;27.86;99154.28;4427639;32;19938;-49
2021/05/04 01:19:59;;;;;;;;;;;;;;;21.20;27.99;99142.91;4433244;32;19965;-52
2021/05/04 01:22:24;;;;;;;;;;;;;;;21.21;28.04;99144.66;4424204;32;19954;-50
2021/05/04 01:24:50;;;;;;;;;;;;;;;21.26;27.74;99141.97;4417252;32;20389;-52
2021/05/04 01:27:16;;;;;;;;;;;;;;;21.25;28.05;99134.91;4424805;32;19958;-50
2021/05/04 01:29:42;;;;;;;;;;;;;;;21.26;27.90;99132.22;4432477;32;19954;-49
2021/05/04 01:32:08;;;;;;;;;;;;;;;21.23;27.96;99126.97;4432596;32;19973;-51
2021/05/04 01:34:34;;;;;;;;;;;;;;;21.30;27.69;99115.44;4432518;32;20013;-48
2021/05/04 01:37:00;;;;;;;;;;;;;;;21.19;28.16;99114.69;4428389;32;19955;-51
2021/05/04 01:39:26;;;;;;;;;;;;;;;21.17;28.03;99105.84;4416098;32;19962;-47
2021/05/04 01:41:51;;;;;;;;;;;;;;;21.22;27.70;99105.81;4420215;32;19957;-49
2021/05/04 01:44:17;;;;;;;;;;;;;;;21.23;27.80;99105.78;4432478;32;19954;-49
2021/05/04 01:46:43;;;;;;;;;;;;;;;21.14;28.22;99096.19;4431076;32;20339;-52
2021/05/04 01:49:09;;;;;;;;;;;;;;;21.20;27.82;99112.00;4417963;32;19987;-50
2021/05/04 01:51:38;;;;;;;;;;;;;;;21.19;28.06;99098.78;4418815;32;19965;-50
2021/05/04 01:54:04;;;;;;;;;;;;;;;21.27;27.99;99098.72;4432701;32;20523;-51
2021/05/04 01:56:30;;;;;;;;;;;;;;;21.17;28.12;99100.56;4433655;32;19953;-51
2021/05/04 01:59:01;;;;;;;;;;;;;;;21.21;27.84;99086.41;4418290;32;19952;-50
2021/05/04 02:01:27;;;;;;;;;;;;;;;21.22;28.12;99092.56;4418400;32;19950;-50
2021/05/04 02:03:53;;;;;;;;;;;;;;;21.21;28.10;99091.72;4433710;32;19961;-49
2021/05/04 02:06:18;;;;;;;;;;;;;;;21.10;28.28;99077.72;4433548;32;19964;-52
2021/05/04 02:08:44;;;;;;;;;;;;;;;21.13;28.13;99077.66;4431562;32;19951;-49
2021/05/04 02:11:10;;;;;;;;;;;;;;;21.10;28.22;99077.72;4432120;32;19981;-50
2021/05/04 02:13:36;;;;;;;;;;;;;;;21.13;28.19;99072.38;4421917;32;19991;-49
2021/05/04 02:16:02;;;;;;;;;;;;;;;21.19;28.06;99069.69;4417382;32;19973;-51
2021/05/04 02:18:28;;;;;;;;;;;;;;;21.22;27.88;99066.97;4426072;32;21708;-50
2021/05/04 02:20:54;;;;;;;;;;;;;;;21.14;28.14;99066.19;4433164;32;19953;-53
2021/05/04 02:23:20;;;;;;;;;;;;;;;21.16;28.14;99052.03;4424241;32;19992;-50
2021/05/04 02:25:46;;;;;;;;;;;;;;;21.10;28.23;99052.09;4415922;32;20278;-50
2021/05/04 02:28:12;;;;;;;;;;;;;;;21.13;28.24;99037.97;4423695;32;20254;-49
2021/05/04 02:30:38;;;;;;;;;;;;;;;21.09;28.18;99039.78;4431400;32;19985;-51
2021/05/04 02:33:04;;;;;;;;;;;;;;;20.97;28.32;99040.81;4426001;32;19962;-50
2021/05/04 02:35:30;;;;;;;;;;;;;;;20.96;28.44;99030.22;4416209;32;19978;-48
2021/05/04 02:37:56;;;;;;;;;;;;;;;21.10;28.36;99024.78;4420179;32;19997;-52
2021/05/04 02:40:22;;;;;;;;;;;;;;;21.12;28.05;99020.34;4431639;32;19998;-50
2021/05/04 02:42:47;;;;;;;;;;;;;;;21.04;28.50;99016.00;4430763;32;19946;-53
2021/05/04 02:45:13;;;;;;;;;;;;;;;21.00;28.43;99009.00;4416822;32;20069;-52
2021/05/04 02:47:39;;;;;;;;;;;;;;;20.99;28.30;99007.25;4419251;32;19980;-47
2021/05/04 02:50:05;;;;;;;;;;;;;;;21.08;28.00;98994.81;4431927;32;19985;-50
2021/05/04 02:52:31;;;;;;;;;;;;;;;21.11;28.18;99000.06;4431459;32;19958;-51
2021/05/04 02:54:57;;;;;;;;;;;;;;;21.04;28.25;98992.19;4416139;32;20331;-50
2021/05/04 02:57:23;;;;;;;;;;;;;;;21.01;28.19;98983.44;4416789;32;20049;-51
2021/05/04 02:59:49;;;;;;;;;;;;;;;21.03;28.09;98977.19;4429396;32;19958;-50
2021/05/04 03:02:14;;;;;;;;;;;;;;;21.04;28.28;98968.34;4426264;32;20299;-50
2021/05/04 03:04:40;;;;;;;;;;;;;;;21.05;27.91;98964.84;4428566;32;19948;-51
2021/05/04 03:07:06;;;;;;;;;;;;;;;21.05;28.33;98951.59;4432107;32;19992;-52
2021/05/04 03:09:32;;;;;;;;;;;;;;;21.11;28.24;98941.81;4431820;32;19987;-51
2021/05/04 03:11:58;;;;;;;;;;;;;;;21.09;28.07;98940.97;4433181;32;19976;-49
2021/05/04 03:14:24;;;;;;;;;;;;;;;21.06;28.12;98939.25;4422067;32;20610;-49
2021/05/04 03:16:50;;;;;;;;;;;;;;;21.08;28.22;98932.16;4417032;32;19994;-49
2021/05/04 03:19:16;;;;;;;;;;;;;;;21.04;28.04;98922.50;4424572;32;19988;-53
2021/05/04 03:21:42;;;;;;;;;;;;;;;21.03;28.14;98913.69;4432588;32;19965;-48
2021/05/04 03:24:08;;;;;;;;;;;;;;;20.99;28.29;98906.69;4424747;32;19952;-50
2021/05/04 03:26:34;;;;;;;;;;;;;;;20.92;28.46;98902.34;4417513;32;19973;-51
2021/05/04 03:29:00;;;;;;;;;;;;;;;20.95;28.45;98906.75;4421855;32;19949;-49
2021/05/04 03:31:26;;;;;;;;;;;;;;;21.02;28.35;98896.06;4431672;32;20368;-52
2021/05/04 03:33:51;;;;;;;;;;;;;;;20.98;28.34;98894.34;4427567;32;19972;-51
2021/05/04 03:36:17;;;;;;;;;;;;;;;20.94;28.75;98887.38;4416126;32;19995;-51
2021/05/04 03:38:43;;;;;;;;;;;;;;;20.85;28.64;98883.03;4417930;32;20267;-50
2021/05/04 03:41:09;;;;;;;;;;;;;;;20.90;28.40;98875.94;4431885;32;19953;-50
2021/05/04 03:43:35;;;;;;;;;;;;;;;20.90;28.74;98883.00;4431131;32;19974;-52
2021/05/04 03:46:01;;;;;;;;;;;;;;;20.85;28.67;98876.91;4416938;32;19958;-52
2021/05/04 03:48:27;;;;;;;;;;;;;;;20.97;28.50;98879.38;4416677;32;19955;-53
2021/05/04 03:50:53;;;;;;;;;;;;;;;20.93;28.58;98864.44;4431532;32;19946;-51
2021/05/04 03:53:19;;;;;;;;;;;;;;;20.89;28.51;98860.97;4431514;32;19972;-49
2021/05/04 03:55:45;;;;;;;;;;;;;;;20.94;28.54;98857.37;4417979;32;19991;-50
2021/05/04 03:58:10;;;;;;;;;;;;;;;20.97;28.55;98852.91;4416887;32;19950;-48
2021/05/04 04:00:36;;;;;;;;;;;;;;;21.00;28.47;98867.88;4428065;32;20279;-48
2021/05/04 04:03:02;;;;;;;;;;;;;;;20.96;28.46;98848.53;4423779;32;19966;-49
2021/05/04 04:05:28;;;;;;;;;;;;;;;20.90;28.72;98859.16;4431067;32;19985;-52
2021/05/04 04:07:54;;;;;;;;;;;;;;;20.74;28.99;98851.41;4431162;32;20309;-49
2021/05/04 04:10:20;;;;;;;;;;;;;;;20.81;28.75;98848.72;4419508;32;19958;-49
2021/05/04 04:12:46;;;;;;;;;;;;;;;20.84;28.60;98853.97;4420804;32;20011;-52
2021/05/04 04:15:13;;;;;;;;;;;;;;;20.86;28.64;98847.75;4427770;32;19953;-49
2021/05/04 04:17:38;;;;;;;;;;;;;;;20.82;28.67;98851.34;4436007;32;19941;-49
2021/05/04 04:20:04;;;;;;;;;;;;;;;20.88;28.70;98845.09;4431615;32;20053;-50
2021/05/04 04:22:30;;;;;;;;;;;;;;;20.95;28.43;98841.47;4428810;32;19938;-52
2021/05/04 04:24:56;;;;;;;;;;;;;;;20.94;28.63;98831.78;4422993;32;20010;-51
2021/05/04 04:27:22;;;;;;;;;;;;;;;20.92;28.74;98830.91;4427064;32;20088;-46
2021/05/04 04:29:48;;;;;;;;;;;;;;;20.85;28.53;98824.84;4427438;32;19954;-47
2021/05/04 04:32:14;;;;;;;;;;;;;;;21.00;28.36;98826.41;4428020;32;19958;-47
2021/05/04 04:34:40;;;;;;;;;;;;;;;20.92;28.57;98817.69;4427289;32;19966;-50
2021/05/04 04:37:06;;;;;;;;;;;;;;;20.89;28.46;98823.03;4420320;32;19938;-52
2021/05/04 04:39:32;;;;;;;;;;;;;;;20.84;28.67;98828.38;4419843;32;19954;-49
2021/05/04 04:41:58;;;;;;;;;;;;;;;20.89;28.60;98828.31;4426614;32;19950;-50
2021/05/04 04:44:24;;;;;;;;;;;;;;;20.83;28.74;98815.19;4429762;32;19938;-46
2021/05/04 04:46:50;;;;;;;;;;;;;;;20.86;28.74;98825.72;4427775;32;19988;-52
2021/05/04 04:49:16;;;;;;;;;;;;;;;20.88;28.74;98821.28;4429542;32;19961;-50
2021/05/04 04:51:42;;;;;;;;;;;;;;;20.84;28.64;98819.59;4428928;32;20379;-47
2021/05/04 04:54:08;;;;;;;;;;;;;;;20.88;28.62;98829.22;4424207;32;20370;-48
2021/05/04 04:56:34;;;;;;;;;;;;;;;20.93;28.51;98830.03;4427236;32;19945;-50
2021/05/04 04:59:00;;;;;;;;;;;;;;;20.90;28.70;98827.41;4427986;32;19965;-52
2021/05/04 05:01:26;;;;;;;;;;;;;;;20.88;28.67;98830.09;4425249;32;20344;-53
2021/05/04 05:03:51;;;;;;;;;;;;;;;20.88;28.79;98826.56;4429489;32;20014;-49
2021/05/04 05:06:17;;;;;;;;;;;;;;;20.93;28.44;98832.69;4426147;32;19981;-48
2021/05/04 05:08:43;;;;;;;;;;;;;;;20.84;28.72;98838.09;4418781;32;19961;-49
2021/05/04 05:11:09;;;;;;;;;;;;;;;20.78;28.93;98836.38;4427333;32;19982;-49
2021/05/04 05:13:35;;;;;;;;;;;;;;;20.83;28.70;98821.34;4434511;32;19949;-45
2021/05/04 05:16:01;;;;;;;;;;;;;;;20.83;28.67;98815.19;4426991;32;19964;-47
2021/05/04 05:18:27;;;;;;;;;;;;;;;20.86;28.76;98816.00;4418664;32;19962;-50
2021/05/04 05:20:53;;;;;;;;;;;;;;;20.83;28.47;98825.78;4424838;32;19963;-51
2021/05/04 05:23:19;;;;;;;;;;;;;;;20.92;28.48;98831.81;4426918;32;20404;-49
2021/05/04 05:25:44;;;;;;;;;;;;;;;20.93;28.50;98819.47;4427118;32;19938;-50
2021/05/04 05:28:10;;;;;;;;;;;;;;;20.95;28.22;98822.94;4426173;32;20367;-51
2021/05/04 05:30:36;;;;;;;;;;;;;;;20.97;28.26;98823.81;4425377;32;19980;-51
2021/05/04 05:33:02;;;;;;;;;;;;;;;20.96;28.53;98805.28;4425357;32;19962;-46
2021/05/04 05:35:29;;;;;;;;;;;;;;;20.84;28.48;98806.34;4424170;32;20870;-49
2021/05/04 05:37:55;;;;;;;;;;;;;;;20.77;28.63;98806.41;4425288;32;19953;-50
2021/05/04 05:40:21;;;;;;;;;;;;;;;20.72;28.63;98802.97;4422617;32;20309;-49
2021/05/04 05:42:47;;;;;;;;;;;;;;;20.79;28.60;98801.09;4426802;32;19949;-50
2021/05/04 05:45:14;;;;;;;;;;;;;;;20.87;28.61;98807.19;4423451;32;19961;-49
2021/05/04 05:47:40;;;;;;;;;;;;;;;20.85;28.43;98805.47;4425079;32;19950;-49
2021/05/04 05:50:05;;;;;;;;;;;;;;;20.91;28.51;98781.53;4424559;32;20412;-47
2021/05/04 05:52:31;;;;;;;;;;;;;;;20.98;28.40;98777.91;4426618;32;19968;-49
2021/05/04 05:54:57;;;;;;;;;;;;;;;20.92;28.46;98785.94;4425769;32;19972;-51
2021/05/04 05:57:23;;;;;;;;;;;;;;;20.84;28.74;98785.19;4425876;32;20586;-48
2021/05/04 05:59:49;;;;;;;;;;;;;;;20.81;28.54;98785.22;4426369;32;19965;-50
2021/05/04 06:02:15;;;;;;;;;;;;;;;20.83;28.65;98784.31;4426095;32;20019;-47
2021/05/04 06:04:41;;;;;;;;;;;;;;;20.95;28.42;98791.19;4425550;32;19946;-49
2021/05/04 06:07:07;;;;;;;;;;;;;;;20.89;28.41;98794.81;4426331;32;19962;-50
2021/05/04 06:09:33;;;;;;;;;;;;;;;20.87;28.61;98793.06;4424511;32;19961;-51
2021/05/04 06:11:59;;;;;;;;;;;;;;;20.84;28.69;98790.47;4426024;32;20381;-50
2021/05/04 06:14:25;;;;;;;;;;;;;;;20.85;28.61;98793.09;4426402;32;19958;-49
2021/05/04 06:16:50;;;;;;;;;;;;;;;20.93;28.48;98800.94;4424691;32;19981;-52
2021/05/04 06:19:18;;;;;;;;;;;;;;;20.90;28.64;98795.66;4426569;32;20357;-48
2021/05/04 06:21:44;;;;;;;;;;;;;;;21.02;28.27;98799.91;4425298;32;19965;-50
2021/05/04 06:24:10;;;;;;;;;;;;;;;20.88;28.49;98786.88;4425178;32;19947;-52
2021/05/04 06:26:36;;;;;;;;;;;;;;;20.87;28.54;98795.72;4425456;32;19964;-49
2021/05/04 06:29:02;;;;;;;;;;;;;;;20.89;28.65;98788.63;4425049;32;19941;-50
2021/05/04 06:31:28;;;;;;;;;;;;;;;20.98;28.36;98782.31;4426296;32;19949;-50
2021/05/04 06:33:54;;;;;;;;;;;;;;;21.00;28.34;98788.50;4425274;32;20013;-50
2021/05/04 06:36:21;;;;;;;;;;;;;;;21.03;28.33;98791.94;4429453;32;19995;-50
2021/05/04 06:38:46;;;;;;;;;;;;;;;21.04;28.33;98791.03;4425240;32;20013;-51
2021/05/04 06:41:12;;;;;;;;;;;;;;;21.06;28.26;98781.31;4426905;32;19957;-49
2021/05/04 06:43:38;;;;;;;;;;;;;;;21.05;28.29;98787.53;4416256;32;19984;-49
2021/05/04 06:46:05;;;;;;;;;;;;;;;21.08;28.30;98791.00;4416407;32;19966;-50
2021/05/04 06:48:31;;;;;;;;;;;;;;;21.06;28.25;98786.63;4428548;32;19961;-53
2021/05/04 06:50:57;;;;;;;;;;;;;;;21.05;28.35;98779.59;4431656;32;19949;-49
2021/05/04 06:53:24;;;;;;;;;;;;;;;21.09;28.26;98784.81;4419302;32;20079;-53
2021/05/04 06:55:50;;;;;;;;;;;;;;;21.08;28.22;98783.94;4417599;32;19966;-51
2021/05/04 06:58:15;;;;;;;;;;;;;;;21.03;28.34;98775.19;4426921;32;20026;-53
2021/05/04 07:00:42;;;;;;;;;;;;;;;21.05;28.41;98792.81;4430606;32;19954;-52
2021/05/04 07:03:08;;;;;;;;;;;;;;;21.06;28.30;98791.91;4421792;32;19965;-53
2021/05/04 07:05:34;;;;;;;;;;;;;;;21.10;28.28;98791.84;4416930;32;19954;-49
2021/05/04 07:08:00;;;;;;;;;;;;;;;21.06;28.36;98778.69;4420854;32;20537;-49
2021/05/04 07:10:26;;;;;;;;;;;;;;;21.10;28.30;98794.50;4414451;32;19972;-52
2021/05/04 07:12:52;;;;;;;;;;;;;;;21.12;28.31;98805.94;4423017;32;20308;-48
2021/05/04 07:15:18;;;;;;;;;;;;;;;21.09;28.35;98803.34;4429308;32;19986;-51
2021/05/04 07:17:43;;;;;;;;;;;;;;;21.08;28.35;98797.16;4430784;32;19988;-48
2021/05/04 07:20:09;;;;;;;;;;;;;;;21.09;28.36;98800.69;4430276;32;20330;-46
2021/05/04 07:22:36;;;;;;;;;;;;;;;21.04;28.48;98798.13;4427859;32;19978;-48
2021/05/04 07:25:02;;;;;;;;;;;;;;;21.02;28.53;98795.47;4415171;32;19992;-54
2021/05/04 07:27:28;;;;;;;;;;;;;;;20.99;28.80;98795.53;4417444;32;20366;-54
2021/05/04 07:29:56;;;;;;;;;;;;;;;20.91;29.20;98781.53;4430421;32;19969;-50
2021/05/04 07:32:22;;;;;;;;;;;;;;;21.02;28.78;98776.97;4429466;32;19971;-53
2021/05/04 07:34:48;;;;;;;;;;;;;;;21.08;28.63;98777.78;4415449;32;20368;-51
2021/05/04 07:37:14;;;;;;;;;;;;;;;21.08;28.73;98772.47;4417724;32;19976;-54
2021/05/04 07:39:40;;;;;;;;;;;;;;;21.03;28.75;98772.56;4429771;32;20294;-52
2021/05/04 07:42:06;;;;;;;;;;;;;;;21.03;28.75;98765.47;4430531;32;20003;-52
2021/05/04 07:44:32;;;;;;;;;;;;;;;21.09;28.66;98782.16;4431333;32;20456;-50
2021/05/04 07:46:58;;;;;;;;;;;;;;;21.10;28.69;98805.09;4430566;32;20260;-48
2021/05/04 07:52:08;;;;;;;;;;;;;;;21.08;28.73;98793.66;4429289;32;20019;-49
2021/05/04 07:54:34;;;;;;;;;;;;;;;21.12;28.68;98812.13;4415611;32;19958;-49
2021/05/04 07:57:00;;;;;;;;;;;;;;;21.12;28.66;98800.62;4416329;32;19954;-49
2021/05/04 07:59:26;;;;;;;;;;;;;;;21.10;28.65;98805.94;4426368;32;19964;-52
2021/05/04 08:01:52;;;;;;;;;;;;;;;21.11;28.73;98804.19;4423252;32;19964;-52
2021/05/04 08:04:17;;;;;;;;;;;;;;;21.11;28.73;98805.03;4419171;32;19988;-49
2021/05/04 08:06:43;;;;;;;;;;;;;;;21.12;28.72;98800.62;4415243;32;19968;-51
2021/05/04 08:09:09;;;;;;;;;;;;;;;21.15;28.77;98795.28;4420883;32;20248;-50
2021/05/04 08:11:35;;;;;;;;;;;;;;;21.12;28.82;98813.88;4425902;32;19953;-51
2021/05/04 08:14:01;;;;;;;;;;;;;;;21.11;28.82;98801.53;4423042;32;20010;-50
2021/05/04 08:16:29;;;;;;;;;;;;;;;21.09;28.87;98796.25;4429419;32;19957;-48
2021/05/04 08:18:55;;;;;;;;;;;;;;;21.06;28.97;98806.91;4416451;32;20001;-51
2021/05/04 08:21:22;;;;;;;;;;;;;;;21.05;28.98;98798.09;4430844;32;19969;-51
2021/05/04 08:23:47;;;;;;;;;;;;;;;21.06;29.03;98796.31;4424902;32;20005;-51
2021/05/04 08:26:13;;;;;;;;;;;;;;;21.03;29.05;98793.72;4414423;32;20353;-48
2021/05/04 08:28:39;;;;;;;;;;;;;;;21.02;29.22;98790.19;4419287;32;20013;-51
2021/05/04 08:31:05;;;;;;;;;;;;;;;21.02;29.11;98800.78;4428837;32;20331;-50
2021/05/04 08:33:31;;;;;;;;;;;;;;;21.06;29.04;98791.91;4427210;32;20516;-50
2021/05/04 08:35:57;;;;;;;;;;;;;;;21.03;29.25;98793.72;4416503;32;20304;-50
2021/05/04 08:38:23;;;;;;;;;;;;;;;21.03;29.29;98799.88;4414868;32;20030;-51
2021/05/04 08:40:49;;;;;;;;;;;;;;;20.99;29.16;98792.88;4426178;32;19998;-50
2021/05/04 08:43:14;;;;;;;;;;;;;;;21.03;29.27;98807.81;4415759;32;19950;-55
2021/05/04 08:45:41;;;;;;;;;;;;;;;21.07;29.19;98808.66;4428378;32;20366;-52
2021/05/04 08:48:06;;;;;;;;;;;;;;;21.11;29.69;98804.19;4414009;32;19954;-51
2021/05/04 08:50:35;;;;;;;;;;;;;;;21.14;29.40;98802.38;4426460;32;19949;-50
2021/05/04 08:53:01;;;;;;;;;;;;;;;21.19;29.23;98804.94;4432881;32;19950;-52
2021/05/04 08:55:27;;;;;;;;;;;;;;;21.19;29.71;98804.94;4419569;32;20329;-50
2021/05/04 08:57:53;;;;;;;;;;;;;;;21.15;29.79;98795.28;4424980;32;19985;-47
2021/05/04 09:00:19;;;;;;;;;;;;;;;21.10;29.94;98807.72;4422468;32;19966;-54
2021/05/04 09:02:45;;;;;;;;;;;;;;;21.10;29.75;98795.34;4424768;32;19966;-51
2021/05/04 09:05:11;;;;;;;;;;;;;;;21.05;29.71;98795.47;4421785;32;20324;-54
2021/05/04 09:07:36;;;;;;;;;;;;;;;21.17;29.43;98782.91;4422254;32;20374;-50
2021/05/04 09:10:30;;;;;;;;;;;;;;;21.22;29.80;98793.41;4424208;32;19988;-48
2021/05/04 09:13:11;;;;;;;;;;;;;;;21.36;29.50;98801.16;4427520;32;19976;-50
2021/05/04 09:15:59;;;;;;;;;;;;;;;21.38;29.90;98815.22;4420181;32;20311;-53
2021/05/04 09:18:25;;;;;;;;;;;;;;;21.34;29.57;98802.03;4429888;32;19950;-54
2021/05/04 09:21:01;;;;;;;;;;;;;;;21.30;29.80;98802.13;4430838;32;19959;-54
2021/05/04 09:23:27;;;;;;;;;;;;;;;21.36;29.62;98793.19;4427521;32;19965;-49
2021/05/04 09:25:53;;;;;;;;;;;;;;;21.29;29.86;98803.87;4429109;32;19958;-52
2021/05/04 09:28:19;;;;;;;;;;;;;;;20.96;30.79;98806.19;4421112;32;20355;-54
2021/05/04 09:30:45;;;;;;;;;;;;;;;21.23;29.97;98808.41;4416912;32;19955;-53
2021/05/04 09:33:11;;;;;;;;;;;;;;;21.30;29.75;98804.75;4425673;32;19983;-55
2021/05/04 09:35:37;;;;;;;;;;;;;;;21.38;29.87;98799.34;4420751;32;19965;-52
2021/05/04 09:38:03;;;;;;;;;;;;;;;21.37;30.14;98800.25;4427787;32;20255;-52
2021/05/04 09:40:29;;;;;;;;;;;;;;;21.33;30.66;98799.41;4431820;32;20014;-53
2021/05/04 09:42:55;;;;;;;;;;;;;;;21.30;30.01;98803.00;4422717;32;19985;-50
2021/05/04 09:45:21;;;;;;;;;;;;;;;21.39;30.19;98798.44;4420061;32;20376;-54
2021/05/04 09:47:47;;;;;;;;;;;;;;;21.43;29.92;98800.16;4425837;32;19958;-53
2021/05/04 09:50:13;;;;;;;;;;;;;;;21.40;30.16;98802.81;4422050;32;20404;-53
2021/05/04 09:52:47;;;;;;;;;;;;;;;20.95;30.73;98803.53;4434283;32;19958;-50
2021/05/04 09:55:14;;;;;;;;;;;;;;;20.90;31.01;98816.84;4427602;32;19972;-50
2021/05/04 09:57:40;;;;;;;;;;;;;;;21.03;30.88;98796.37;4417093;32;20529;-48
2021/05/04 10:00:06;;;;;;;;;;;;;;;21.06;30.72;98797.19;4420170;32;20030;-50
2021/05/04 10:02:32;;;;;;;;;;;;;;;21.10;30.53;98789.22;4433892;32;20009;-51
2021/05/04 10:04:58;;;;;;;;;;;;;;;21.22;30.29;98785.47;4431772;32;19961;-50
2021/05/04 10:07:23;;;;;;;;;;;;;;;21.27;30.16;98789.78;4418032;32;20017;-51
2021/05/04 10:09:49;;;;;;;;;;;;;;;21.22;30.27;98801.34;4416763;32;20433;-49
2021/05/04 10:12:15;;;;;;;;;;;;;;;21.18;30.40;98795.25;4430658;32;20052;-51
2021/05/04 10:14:41;;;;;;;;;;;;;;;21.02;30.57;98803.41;4417266;32;20334;-51
2021/05/04 10:17:07;;;;;;;;;;;;;;;21.05;30.51;98800.75;4432526;32;19964;-52
2021/05/04 10:19:33;;;;;;;;;;;;;;;21.10;30.67;98810.38;4432493;32;20539;-51
2021/05/04 10:21:59;;;;;;;;;;;;;;;21.11;30.75;98798.91;4433128;32;19965;-52
2021/05/04 10:24:25;;;;;;;;;;;;;;;21.04;30.77;98809.56;4431969;32;19953;-51
2021/05/04 10:26:51;;;;;;;;;;;;;;;20.98;30.83;98814.06;4420807;32;19958;-54
2021/05/04 10:29:17;;;;;;;;;;;;;;;20.30;31.96;98806.16;4416363;32;19951;-54
2021/05/04 10:31:47;;;;;;;;;;;;;;;20.66;31.33;98802.16;4419091;32;19962;-52
2021/05/04 10:34:13;;;;;;;;;;;;;;;20.79;31.22;98814.31;4423934;32;19965;-51
2021/05/04 10:36:39;;;;;;;;;;;;;;;20.89;30.83;98815.09;4425337;32;19991;-52
2021/05/04 10:39:05;;;;;;;;;;;;;;;21.01;30.84;98814.06;4424821;32;20322;-54
2021/05/04 10:41:31;;;;;;;;;;;;;;;21.10;30.25;98818.31;4425964;32;20637;-55
2021/05/04 10:43:57;;;;;;;;;;;;;;;21.16;30.17;98812.91;4428271;32;19954;-54
2021/05/04 10:46:23;;;;;;;;;;;;;;;21.19;30.17;98819.03;4429357;32;20052;-51
2021/05/04 10:48:49;;;;;;;;;;;;;;;21.24;30.48;98815.47;4432928;32;19950;-50
2021/05/04 10:51:15;;;;;;;;;;;;;;;21.28;30.21;98811.87;4424062;32;20360;-54
2021/05/04 10:53:41;;;;;;;;;;;;;;;21.36;29.96;98806.44;4428754;32;19938;-54
2021/05/04 10:56:07;;;;;;;;;;;;;;;21.37;30.06;98806.44;4426669;32;19984;-52
2021/05/04 10:58:33;;;;;;;;;;;;;;;21.39;30.12;98803.72;4425683;32;19976;-54
2021/05/04 11:01:04;;;;;;;;;;;;;;;21.39;30.15;98799.31;4426627;32;20274;-54
2021/05/04 11:03:30;;;;;;;;;;;;;;;21.36;29.81;98799.38;4419214;32;19941;-54
2021/05/04 11:05:56;;;;;;;;;;;;;;;21.37;29.94;98800.25;4426600;32;20406;-54
2021/05/04 11:08:22;;;;;;;;;;;;;;;21.37;29.66;98798.47;4415921;32;19972;-54
2021/05/04 11:10:48;;;;;;;;;;;;;;;21.41;29.46;98796.63;4425059;32;20259;-52
2021/05/04 11:13:14;;;;;;;;;;;;;;;21.45;29.52;98793.91;4424239;32;19950;-54
2021/05/04 11:15:40;;;;;;;;;;;;;;;21.46;29.54;98810.69;4425772;32;20020;-53
2021/05/04 11:18:06;;;;;;;;;;;;;;;21.46;29.51;98786.84;4424274;32;20395;-54
2021/05/04 11:20:32;;;;;;;;;;;;;;;21.47;29.68;98796.53;4424918;32;19985;-51
2021/05/04 11:22:58;;;;;;;;;;;;;;;21.46;29.57;98789.50;4422971;32;20278;-54
2021/05/04 11:25:23;;;;;;;;;;;;;;;21.53;29.26;98791.13;4426916;32;19975;-54
2021/05/04 11:27:49;;;;;;;;;;;;;;;21.53;29.37;98787.63;4425534;32;20433;-54
2021/05/04 11:30:15;;;;;;;;;;;;;;;21.52;29.34;98788.53;4423692;32;19992;-55
2021/05/04 11:32:41;;;;;;;;;;;;;;;21.55;29.31;98784.06;4426571;32;19950;-54
2021/05/04 11:35:07;;;;;;;;;;;;;;;21.56;29.36;98772.56;4423263;32;20503;-51
2021/05/04 11:37:36;;;;;;;;;;;;;;;21.55;29.45;98772.56;4426102;32;19950;-54
2021/05/04 11:40:02;;;;;;;;;;;;;;;21.56;29.43;98777.84;4423818;32;19961;-52
2021/05/04 11:42:28;;;;;;;;;;;;;;;21.58;29.44;98768.09;4423366;32;20566;-50
2021/05/04 11:44:54;;;;;;;;;;;;;;;21.59;29.39;98769.84;4423524;32;20002;-49
2021/05/04 11:47:20;;;;;;;;;;;;;;;21.57;29.52;98766.34;4421984;32;19997;-55
2021/05/04 11:49:46;;;;;;;;;;;;;;;21.58;29.41;98773.37;4417353;32;19998;-53
2021/05/04 11:52:16;;;;;;;;;;;;;;;21.60;29.45;98768.94;4427385;32;19969;-52
2021/05/04 11:54:42;;;;;;;;;;;;;;;21.53;29.64;98769.94;4426450;32;20020;-53
2021/05/04 11:57:08;;;;;;;;;;;;;;;21.60;29.53;98771.59;4427290;32;20244;-51
2021/05/04 11:59:34;;;;;;;;;;;;;;;21.56;29.77;98769.00;4416316;32;19954;-55
2021/05/04 12:02:00;;;;;;;;;;;;;;;21.59;29.51;98774.25;4419890;32;20299;-56
2021/05/04 12:04:26;;;;;;;;;;;;;;;21.69;29.52;98772.34;4431582;32;19958;-54
2021/05/04 12:06:52;;;;;;;;;;;;;;;21.55;29.85;98786.69;4431317;32;19954;-56
2021/05/04 12:09:18;;;;;;;;;;;;;;;21.68;29.49;98773.25;4420345;32;19954;-55
2021/05/04 12:11:43;;;;;;;;;;;;;;;21.68;29.67;98762.66;4431611;32;19961;-55
2021/05/04 12:14:09;;;;;;;;;;;;;;;21.71;29.47;98759.94;4416895;32;19954;-54
2021/05/04 12:16:35;;;;;;;;;;;;;;;21.70;29.57;98767.00;4423853;32;19958;-54
2021/05/04 12:19:01;;;;;;;;;;;;;;;21.74;29.45;98757.22;4417537;32;20335;-55
2021/05/04 12:21:27;;;;;;;;;;;;;;;21.72;29.70;98761.69;4416022;32;20356;-57
2021/05/04 12:23:53;;;;;;;;;;;;;;;21.74;29.54;98763.41;4428859;32;19965;-52
2021/05/04 12:26:20;;;;;;;;;;;;;;;21.69;29.81;98769.72;4433485;32;20294;-52
2021/05/04 12:28:47;;;;;;;;;;;;;;;21.73;29.56;98748.44;4432968;32;19997;-51
2021/05/04 12:31:14;;;;;;;;;;;;;;;21.79;29.73;98738.59;4435021;32;19937;-55
2021/05/04 12:33:40;;;;;;;;;;;;;;;21.80;29.64;98730.63;4424776;32;20282;-49
2021/05/04 12:36:09;;;;;;;;;;;;;;;21.78;29.65;98737.72;4419621;32;19981;-53
2021/05/04 12:38:38;;;;;;;;;;;;;;;21.80;29.68;98741.25;4422801;32;20404;-54
2021/05/04 12:41:13;;;;;;;;;;;;;;;21.77;29.64;98741.28;4433698;32;19961;-53
2021/05/04 12:43:46;;;;;;;;;;;;;;;21.77;29.69;98741.28;4424738;32;19958;-51
2021/05/04 12:46:12;;;;;;;;;;;;;;;21.82;29.67;98738.53;4417204;32;19954;-53